sensor_id;sensor_type;location;lat;lon;timestamp;P1;durP1;ratioP1;P2;durP2;ratioP2
3767;SDS011;1899;49.966;7.106;2022-08-19T04:02:37;19.97;;;17.90;;
3767;SDS011;1899;49.966;7.106;2022-08-19T04:05:03;18.70;;;16.70;;
3767;SDS011;1899;49.966;7.106;2022-08-19T04:07:28;18.80;;;16.80;;
3767;SDS011;1899;49.966;7.106;2022-08-19T04:09:53;20.53;;;18.53;;
3767;SDS011;1899;49.966;7.106;2022-08-19T04:12:19;21.40;;;19.10;;
3767;SDS011;1899;49.966;7.106;2022-08-19T04:14:45;18.97;;;17.13;;
3767;SDS011;1899;49.966;7.106;2022-08-19T04:17:10;19.73;;;17.70;;
3767;SDS011;1899;49.966;7.106;2022-08-19T04:19:36;20.07;;;18.10;;
3767;SDS011;1899;49.966;7.106;2022-08-19T04:22:01;19.87;;;17.87;;
3767;SDS011;1899;49.966;7.106;2022-08-19T04:24:26;20.20;;;17.83;;
3767;SDS011;1899;49.966;7.106;2022-08-19T04:26:52;19.57;;;17.67;;
3767;SDS011;1899;49.966;7.106;2022-08-19T04:29:19;20.70;;;18.70;;
3767;SDS011;1899;49.966;7.106;2022-08-19T04:31:45;19.93;;;17.90;;
3767;SDS011;1899;49.966;7.106;2022-08-19T04:34:12;21.17;;;19.07;;
3767;SDS011;1899;49.966;7.106;2022-08-19T04:36:39;20.70;;;18.50;;
3767;SDS011;1899;49.966;7.106;2022-08-19T04:39:07;19.20;;;17.23;;
3767;SDS011;1899;49.966;7.106;2022-08-19T04:41:33;20.90;;;18.80;;
3767;SDS011;1899;49.966;7.106;2022-08-19T04:44:16;19.93;;;17.87;;
3767;SDS011;1899;49.966;7.106;2022-08-19T04:46:45;20.57;;;18.43;;
3767;SDS011;1899;49.966;7.106;2022-08-19T04:49:12;19.93;;;17.93;;
3767;SDS011;1899;49.966;7.106;2022-08-19T04:51:39;19.40;;;17.50;;
3767;SDS011;1899;49.966;7.106;2022-08-19T04:54:05;21.30;;;19.20;;
3767;SDS011;1899;49.966;7.106;2022-08-19T04:56:30;19.73;;;17.73;;
3767;SDS011;1899;49.966;7.106;2022-08-19T04:58:55;18.77;;;16.83;;
3767;SDS011;1899;49.966;7.106;2022-08-19T05:01:25;19.50;;;17.50;;
3767;SDS011;1899;49.966;7.106;2022-08-19T05:03:50;18.30;;;16.40;;
3767;SDS011;1899;49.966;7.106;2022-08-19T05:06:17;17.83;;;16.23;;
3767;SDS011;1899;49.966;7.106;2022-08-19T05:08:43;17.43;;;15.73;;
3767;SDS011;1899;49.966;7.106;2022-08-19T05:11:12;17.60;;;15.97;;
3767;SDS011;1899;49.966;7.106;2022-08-19T05:13:37;19.70;;;17.80;;
3767;SDS011;1899;49.966;7.106;2022-08-19T05:16:03;19.07;;;17.17;;
3767;SDS011;1899;49.966;7.106;2022-08-19T05:18:28;17.00;;;15.30;;
3767;SDS011;1899;49.966;7.106;2022-08-19T05:21:15;17.93;;;16.23;;
3767;SDS011;1899;49.966;7.106;2022-08-19T05:23:58;17.40;;;15.60;;
3767;SDS011;1899;49.966;7.106;2022-08-19T05:26:24;19.00;;;16.00;;
3767;SDS011;1899;49.966;7.106;2022-08-19T05:28:53;15.63;;;14.00;;
3767;SDS011;1899;49.966;7.106;2022-08-19T05:31:18;16.03;;;14.53;;
3767;SDS011;1899;49.966;7.106;2022-08-19T05:33:44;16.50;;;14.80;;
3767;SDS011;1899;49.966;7.106;2022-08-19T05:36:09;14.90;;;13.60;;
3767;SDS011;1899;49.966;7.106;2022-08-19T05:38:35;13.80;;;12.50;;
3767;SDS011;1899;49.966;7.106;2022-08-19T05:41:01;13.57;;;12.37;;
3767;SDS011;1899;49.966;7.106;2022-08-19T05:43:30;15.97;;;13.53;;
3767;SDS011;1899;49.966;7.106;2022-08-19T05:45:56;13.87;;;12.53;;
3767;SDS011;1899;49.966;7.106;2022-08-19T05:48:21;14.90;;;12.03;;
3767;SDS011;1899;49.966;7.106;2022-08-19T05:50:46;12.90;;;11.80;;
3767;SDS011;1899;49.966;7.106;2022-08-19T05:53:15;14.03;;;12.70;;
3767;SDS011;1899;49.966;7.106;2022-08-19T05:55:41;14.13;;;12.83;;
3767;SDS011;1899;49.966;7.106;2022-08-19T05:58:06;14.30;;;12.90;;
3767;SDS011;1899;49.966;7.106;2022-08-19T06:00:35;14.03;;;12.83;;
3767;SDS011;1899;49.966;7.106;2022-08-19T06:03:01;14.23;;;12.80;;
3767;SDS011;1899;49.966;7.106;2022-08-19T06:05:28;14.33;;;12.83;;
3767;SDS011;1899;49.966;7.106;2022-08-19T06:07:54;15.70;;;14.10;;
3767;SDS011;1899;49.966;7.106;2022-08-19T06:10:19;15.63;;;14.07;;
3767;SDS011;1899;49.966;7.106;2022-08-19T06:12:46;15.03;;;13.47;;
3767;SDS011;1899;49.966;7.106;2022-08-19T06:15:12;15.50;;;13.90;;
3767;SDS011;1899;49.966;7.106;2022-08-19T06:17:38;15.83;;;14.40;;
3767;SDS011;1899;49.966;7.106;2022-08-19T06:20:04;14.13;;;12.77;;
3767;SDS011;1899;49.966;7.106;2022-08-19T06:22:31;16.13;;;14.60;;
3767;SDS011;1899;49.966;7.106;2022-08-19T06:24:56;15.13;;;13.37;;
3767;SDS011;1899;49.966;7.106;2022-08-19T06:27:22;14.53;;;13.17;;
3767;SDS011;1899;49.966;7.106;2022-08-19T06:29:47;15.50;;;14.20;;
3767;SDS011;1899;49.966;7.106;2022-08-19T06:32:14;17.30;;;15.70;;
3767;SDS011;1899;49.966;7.106;2022-08-19T06:34:40;16.90;;;15.30;;
3767;SDS011;1899;49.966;7.106;2022-08-19T06:37:06;15.03;;;13.73;;
3767;SDS011;1899;49.966;7.106;2022-08-19T06:39:33;14.30;;;13.10;;
3767;SDS011;1899;49.966;7.106;2022-08-19T06:41:59;16.23;;;14.57;;
3767;SDS011;1899;49.966;7.106;2022-08-19T06:44:28;15.33;;;13.93;;
3767;SDS011;1899;49.966;7.106;2022-08-19T06:46:54;16.97;;;15.37;;
3767;SDS011;1899;49.966;7.106;2022-08-19T06:49:19;14.53;;;13.20;;
3767;SDS011;1899;49.966;7.106;2022-08-19T06:51:46;14.30;;;13.00;;
3767;SDS011;1899;49.966;7.106;2022-08-19T06:54:14;15.17;;;13.77;;
3767;SDS011;1899;49.966;7.106;2022-08-19T06:56:40;17.00;;;15.30;;
3767;SDS011;1899;49.966;7.106;2022-08-19T06:59:07;15.63;;;14.13;;
3767;SDS011;1899;49.966;7.106;2022-08-19T07:01:36;16.10;;;14.57;;
3767;SDS011;1899;49.966;7.106;2022-08-19T07:04:03;12.80;;;11.60;;
3767;SDS011;1899;49.966;7.106;2022-08-19T07:06:28;16.37;;;14.77;;
3767;SDS011;1899;49.966;7.106;2022-08-19T07:08:56;17.07;;;15.27;;
3767;SDS011;1899;49.966;7.106;2022-08-19T07:11:23;16.57;;;14.87;;
3767;SDS011;1899;49.966;7.106;2022-08-19T07:13:48;15.67;;;14.20;;
3767;SDS011;1899;49.966;7.106;2022-08-19T07:16:15;15.73;;;14.27;;
3767;SDS011;1899;49.966;7.106;2022-08-19T07:18:41;16.27;;;14.60;;
3767;SDS011;1899;49.966;7.106;2022-08-19T07:21:07;15.57;;;14.27;;
3767;SDS011;1899;49.966;7.106;2022-08-19T07:23:33;16.23;;;14.70;;
3767;SDS011;1899;49.966;7.106;2022-08-19T07:26:03;16.77;;;15.10;;
3767;SDS011;1899;49.966;7.106;2022-08-19T07:28:29;17.47;;;15.67;;
3767;SDS011;1899;49.966;7.106;2022-08-19T07:30:54;15.97;;;14.47;;
3767;SDS011;1899;49.966;7.106;2022-08-19T07:33:19;17.03;;;14.20;;
3767;SDS011;1899;49.966;7.106;2022-08-19T07:35:45;14.80;;;13.43;;
3767;SDS011;1899;49.966;7.106;2022-08-19T07:38:10;15.63;;;14.13;;
3767;SDS011;1899;49.966;7.106;2022-08-19T07:40:35;17.30;;;15.47;;
3767;SDS011;1899;49.966;7.106;2022-08-19T07:43:00;16.00;;;14.40;;
3767;SDS011;1899;49.966;7.106;2022-08-19T07:45:26;15.53;;;14.03;;
3767;SDS011;1899;49.966;7.106;2022-08-19T07:47:53;16.27;;;14.70;;
3767;SDS011;1899;49.966;7.106;2022-08-19T07:50:18;16.23;;;14.53;;
3767;SDS011;1899;49.966;7.106;2022-08-19T07:52:44;14.43;;;13.00;;
3767;SDS011;1899;49.966;7.106;2022-08-19T07:55:10;13.97;;;12.77;;
3767;SDS011;1899;49.966;7.106;2022-08-19T07:57:35;14.47;;;13.07;;
3767;SDS011;1899;49.966;7.106;2022-08-19T08:00:00;15.43;;;14.13;;
3767;SDS011;1899;49.966;7.106;2022-08-19T08:02:26;15.40;;;14.10;;
3767;SDS011;1899;49.966;7.106;2022-08-19T08:04:51;14.67;;;13.37;;
3767;SDS011;1899;49.966;7.106;2022-08-19T08:07:35;13.93;;;12.43;;
3767;SDS011;1899;49.966;7.106;2022-08-19T08:10:19;15.27;;;13.87;;
3767;SDS011;1899;49.966;7.106;2022-08-19T08:12:44;16.07;;;14.33;;
3767;SDS011;1899;49.966;7.106;2022-08-19T08:15:11;14.50;;;13.20;;
3767;SDS011;1899;49.966;7.106;2022-08-19T08:17:37;15.40;;;14.10;;
3767;SDS011;1899;49.966;7.106;2022-08-19T08:20:04;15.63;;;14.23;;
3767;SDS011;1899;49.966;7.106;2022-08-19T08:22:32;15.43;;;13.90;;
3767;SDS011;1899;49.966;7.106;2022-08-19T08:25:16;15.17;;;13.77;;
3767;SDS011;1899;49.966;7.106;2022-08-19T08:27:44;15.30;;;13.90;;
3767;SDS011;1899;49.966;7.106;2022-08-19T08:30:12;14.43;;;12.97;;
3767;SDS011;1899;49.966;7.106;2022-08-19T08:32:38;14.53;;;13.27;;
3767;SDS011;1899;49.966;7.106;2022-08-19T08:35:04;14.60;;;13.30;;
3767;SDS011;1899;49.966;7.106;2022-08-19T08:37:29;14.70;;;13.33;;
3767;SDS011;1899;49.966;7.106;2022-08-19T08:39:55;13.70;;;11.90;;
3767;SDS011;1899;49.966;7.106;2022-08-19T08:42:28;12.43;;;11.23;;
3767;SDS011;1899;49.966;7.106;2022-08-19T08:47:23;12.17;;;11.23;;
3767;SDS011;1899;49.966;7.106;2022-08-19T08:49:51;12.90;;;11.80;;
3767;SDS011;1899;49.966;7.106;2022-08-19T08:52:21;11.83;;;10.77;;
3767;SDS011;1899;49.966;7.106;2022-08-19T08:54:47;12.50;;;11.20;;
3767;SDS011;1899;49.966;7.106;2022-08-19T08:57:23;12.00;;;10.90;;
3767;SDS011;1899;49.966;7.106;2022-08-19T08:59:50;11.70;;;10.70;;
3767;SDS011;1899;49.966;7.106;2022-08-19T09:02:17;12.00;;;11.00;;
3767;SDS011;1899;49.966;7.106;2022-08-19T09:04:42;11.40;;;10.40;;
3767;SDS011;1899;49.966;7.106;2022-08-19T09:09:34;10.10;;;9.27;;
3767;SDS011;1899;49.966;7.106;2022-08-19T09:17:11;12.00;;;10.90;;
3767;SDS011;1899;49.966;7.106;2022-08-19T09:19:46;9.93;;;8.97;;
3767;SDS011;1899;49.966;7.106;2022-08-19T09:22:13;11.10;;;10.10;;
3767;SDS011;1899;49.966;7.106;2022-08-19T09:24:38;10.93;;;9.90;;
3767;SDS011;1899;49.966;7.106;2022-08-19T09:27:04;10.80;;;9.80;;
3767;SDS011;1899;49.966;7.106;2022-08-19T09:29:30;12.63;;;11.43;;
3767;SDS011;1899;49.966;7.106;2022-08-19T09:31:55;11.33;;;10.23;;
3767;SDS011;1899;49.966;7.106;2022-08-19T09:34:20;13.33;;;9.30;;
3767;SDS011;1899;49.966;7.106;2022-08-19T09:36:46;10.73;;;9.73;;
3767;SDS011;1899;49.966;7.106;2022-08-19T09:39:11;10.47;;;8.60;;
3767;SDS011;1899;49.966;7.106;2022-08-19T09:41:37;10.67;;;9.77;;
3767;SDS011;1899;49.966;7.106;2022-08-19T09:44:02;16.73;;;9.50;;
3767;SDS011;1899;49.966;7.106;2022-08-19T09:46:28;10.00;;;9.20;;
3767;SDS011;1899;49.966;7.106;2022-08-19T09:48:53;10.17;;;9.27;;
3767;SDS011;1899;49.966;7.106;2022-08-19T09:51:20;10.57;;;9.67;;
3767;SDS011;1899;49.966;7.106;2022-08-19T09:53:47;9.60;;;8.70;;
3767;SDS011;1899;49.966;7.106;2022-08-19T09:56:15;10.83;;;9.93;;
3767;SDS011;1899;49.966;7.106;2022-08-19T09:58:41;10.90;;;9.97;;
3767;SDS011;1899;49.966;7.106;2022-08-19T10:01:06;10.53;;;9.13;;
3767;SDS011;1899;49.966;7.106;2022-08-19T10:03:32;10.07;;;9.27;;
3767;SDS011;1899;49.966;7.106;2022-08-19T10:05:59;9.77;;;8.87;;
3767;SDS011;1899;49.966;7.106;2022-08-19T10:08:27;11.10;;;10.10;;
3767;SDS011;1899;49.966;7.106;2022-08-19T10:10:52;9.37;;;8.17;;
3767;SDS011;1899;49.966;7.106;2022-08-19T10:13:19;9.23;;;8.43;;
3767;SDS011;1899;49.966;7.106;2022-08-19T10:15:49;9.10;;;8.27;;
3767;SDS011;1899;49.966;7.106;2022-08-19T10:18:15;9.80;;;8.40;;
3767;SDS011;1899;49.966;7.106;2022-08-19T10:20:42;8.90;;;8.10;;
3767;SDS011;1899;49.966;7.106;2022-08-19T10:23:08;9.80;;;8.87;;
3767;SDS011;1899;49.966;7.106;2022-08-19T10:25:33;8.20;;;7.60;;
3767;SDS011;1899;49.966;7.106;2022-08-19T10:27:59;9.30;;;8.50;;
3767;SDS011;1899;49.966;7.106;2022-08-19T10:30:24;8.83;;;8.00;;
3767;SDS011;1899;49.966;7.106;2022-08-19T10:32:50;7.60;;;6.90;;
3767;SDS011;1899;49.966;7.106;2022-08-19T10:35:15;8.30;;;7.50;;
3767;SDS011;1899;49.966;7.106;2022-08-19T10:37:40;6.67;;;6.07;;
3767;SDS011;1899;49.966;7.106;2022-08-19T10:40:06;5.80;;;5.40;;
3767;SDS011;1899;49.966;7.106;2022-08-19T10:42:33;7.37;;;6.80;;
3767;SDS011;1899;49.966;7.106;2022-08-19T10:44:58;7.37;;;6.63;;
3767;SDS011;1899;49.966;7.106;2022-08-19T10:47:23;7.10;;;6.40;;
3767;SDS011;1899;49.966;7.106;2022-08-19T10:49:49;6.60;;;6.10;;
3767;SDS011;1899;49.966;7.106;2022-08-19T10:52:32;6.90;;;6.40;;
3767;SDS011;1899;49.966;7.106;2022-08-19T10:55:03;8.03;;;7.43;;
3767;SDS011;1899;49.966;7.106;2022-08-19T10:57:48;7.20;;;6.50;;
3767;SDS011;1899;49.966;7.106;2022-08-19T11:00:13;7.67;;;6.97;;
3767;SDS011;1899;49.966;7.106;2022-08-19T11:02:38;8.20;;;7.50;;
3767;SDS011;1899;49.966;7.106;2022-08-19T11:05:04;7.63;;;6.93;;
3767;SDS011;1899;49.966;7.106;2022-08-19T11:07:31;7.37;;;6.73;;
3767;SDS011;1899;49.966;7.106;2022-08-19T11:09:57;8.83;;;8.13;;
3767;SDS011;1899;49.966;7.106;2022-08-19T11:12:22;8.57;;;7.67;;
3767;SDS011;1899;49.966;7.106;2022-08-19T11:14:47;8.23;;;7.63;;
3767;SDS011;1899;49.966;7.106;2022-08-19T11:17:14;7.80;;;7.20;;
3767;SDS011;1899;49.966;7.106;2022-08-19T11:19:40;8.37;;;7.27;;
3767;SDS011;1899;49.966;7.106;2022-08-19T11:22:07;8.60;;;7.90;;
3767;SDS011;1899;49.966;7.106;2022-08-19T11:24:34;9.80;;;8.60;;
3767;SDS011;1899;49.966;7.106;2022-08-19T11:27:02;8.23;;;7.40;;
3767;SDS011;1899;49.966;7.106;2022-08-19T11:29:29;10.33;;;9.50;;
3767;SDS011;1899;49.966;7.106;2022-08-19T11:31:55;9.40;;;8.50;;
3767;SDS011;1899;49.966;7.106;2022-08-19T11:34:22;9.50;;;8.73;;
3767;SDS011;1899;49.966;7.106;2022-08-19T11:36:48;10.00;;;9.00;;
3767;SDS011;1899;49.966;7.106;2022-08-19T11:39:14;9.57;;;8.73;;
3767;SDS011;1899;49.966;7.106;2022-08-19T11:41:40;10.13;;;8.07;;
3767;SDS011;1899;49.966;7.106;2022-08-19T11:44:06;9.90;;;8.90;;
3767;SDS011;1899;49.966;7.106;2022-08-19T11:46:33;13.90;;;12.70;;
3767;SDS011;1899;49.966;7.106;2022-08-19T11:48:59;9.03;;;8.33;;
3767;SDS011;1899;49.966;7.106;2022-08-19T11:51:25;12.80;;;10.80;;
3767;SDS011;1899;49.966;7.106;2022-08-19T11:53:51;8.93;;;8.13;;
3767;SDS011;1899;49.966;7.106;2022-08-19T11:56:18;9.80;;;8.80;;
3767;SDS011;1899;49.966;7.106;2022-08-19T11:58:43;8.80;;;8.00;;
3767;SDS011;1899;49.966;7.106;2022-08-19T12:01:09;8.13;;;7.43;;
3767;SDS011;1899;49.966;7.106;2022-08-19T12:03:36;8.47;;;7.77;;
3767;SDS011;1899;49.966;7.106;2022-08-19T12:06:08;8.13;;;7.33;;
3767;SDS011;1899;49.966;7.106;2022-08-19T12:08:34;8.30;;;7.60;;
3767;SDS011;1899;49.966;7.106;2022-08-19T12:10:59;7.67;;;7.07;;
3767;SDS011;1899;49.966;7.106;2022-08-19T12:13:26;7.90;;;7.30;;
3767;SDS011;1899;49.966;7.106;2022-08-19T12:15:53;7.43;;;6.93;;
3767;SDS011;1899;49.966;7.106;2022-08-19T12:18:19;7.13;;;6.53;;
3767;SDS011;1899;49.966;7.106;2022-08-19T12:20:44;7.10;;;6.50;;
3767;SDS011;1899;49.966;7.106;2022-08-19T12:23:10;7.43;;;6.83;;
3767;SDS011;1899;49.966;7.106;2022-08-19T12:25:37;9.10;;;7.67;;
3767;SDS011;1899;49.966;7.106;2022-08-19T12:28:03;8.97;;;7.90;;
3767;SDS011;1899;49.966;7.106;2022-08-19T12:30:28;8.93;;;8.03;;
3767;SDS011;1899;49.966;7.106;2022-08-19T12:32:53;10.50;;;9.50;;
3767;SDS011;1899;49.966;7.106;2022-08-19T12:35:19;10.07;;;9.17;;
3767;SDS011;1899;49.966;7.106;2022-08-19T12:37:45;10.87;;;9.80;;
3767;SDS011;1899;49.966;7.106;2022-08-19T12:40:11;9.13;;;8.40;;
3767;SDS011;1899;49.966;7.106;2022-08-19T12:42:39;10.37;;;9.57;;
3767;SDS011;1899;49.966;7.106;2022-08-19T12:45:11;9.40;;;8.60;;
3767;SDS011;1899;49.966;7.106;2022-08-19T12:47:36;10.97;;;10.07;;
3767;SDS011;1899;49.966;7.106;2022-08-19T12:50:02;9.53;;;8.77;;
3767;SDS011;1899;49.966;7.106;2022-08-19T12:52:27;10.30;;;9.43;;
3767;SDS011;1899;49.966;7.106;2022-08-19T12:54:53;10.30;;;9.30;;
3767;SDS011;1899;49.966;7.106;2022-08-19T12:57:19;11.33;;;9.17;;
3767;SDS011;1899;49.966;7.106;2022-08-19T12:59:44;9.70;;;8.90;;
3767;SDS011;1899;49.966;7.106;2022-08-19T13:02:09;9.60;;;8.80;;
3767;SDS011;1899;49.966;7.106;2022-08-19T13:04:35;8.97;;;8.23;;
3767;SDS011;1899;49.966;7.106;2022-08-19T13:07:01;9.17;;;7.60;;
3767;SDS011;1899;49.966;7.106;2022-08-19T13:09:26;8.67;;;7.97;;
3767;SDS011;1899;49.966;7.106;2022-08-19T13:11:52;8.40;;;7.70;;
3767;SDS011;1899;49.966;7.106;2022-08-19T13:14:17;8.00;;;7.40;;
3767;SDS011;1899;49.966;7.106;2022-08-19T13:16:43;8.57;;;7.87;;
3767;SDS011;1899;49.966;7.106;2022-08-19T13:19:09;7.43;;;6.80;;
3767;SDS011;1899;49.966;7.106;2022-08-19T13:21:35;7.10;;;6.50;;
3767;SDS011;1899;49.966;7.106;2022-08-19T13:24:01;6.80;;;6.30;;
3767;SDS011;1899;49.966;7.106;2022-08-19T13:26:26;6.77;;;6.17;;
3767;SDS011;1899;49.966;7.106;2022-08-19T13:28:52;6.63;;;6.13;;
3767;SDS011;1899;49.966;7.106;2022-08-19T13:31:36;5.87;;;5.40;;
3767;SDS011;1899;49.966;7.106;2022-08-19T13:34:25;6.77;;;6.10;;
3767;SDS011;1899;49.966;7.106;2022-08-19T13:36:52;5.80;;;5.30;;
3767;SDS011;1899;49.966;7.106;2022-08-19T13:39:18;6.00;;;5.50;;
3767;SDS011;1899;49.966;7.106;2022-08-19T13:41:45;6.57;;;6.10;;
3767;SDS011;1899;49.966;7.106;2022-08-19T13:44:13;5.80;;;5.30;;
3767;SDS011;1899;49.966;7.106;2022-08-19T13:46:38;6.17;;;4.70;;
3767;SDS011;1899;49.966;7.106;2022-08-19T13:49:03;6.00;;;5.50;;
3767;SDS011;1899;49.966;7.106;2022-08-19T13:51:29;5.67;;;5.27;;
3767;SDS011;1899;49.966;7.106;2022-08-19T13:53:54;5.53;;;5.07;;
3767;SDS011;1899;49.966;7.106;2022-08-19T13:56:20;5.83;;;5.33;;
3767;SDS011;1899;49.966;7.106;2022-08-19T13:58:45;5.17;;;4.77;;
3767;SDS011;1899;49.966;7.106;2022-08-19T14:01:11;5.60;;;5.20;;
3767;SDS011;1899;49.966;7.106;2022-08-19T14:03:36;5.80;;;5.30;;
3767;SDS011;1899;49.966;7.106;2022-08-19T14:06:02;5.73;;;5.23;;
3767;SDS011;1899;49.966;7.106;2022-08-19T14:08:28;5.80;;;5.20;;
3767;SDS011;1899;49.966;7.106;2022-08-19T14:10:54;4.77;;;4.37;;
3767;SDS011;1899;49.966;7.106;2022-08-19T14:13:21;5.60;;;5.10;;
3767;SDS011;1899;49.966;7.106;2022-08-19T14:15:46;5.30;;;4.90;;
3767;SDS011;1899;49.966;7.106;2022-08-19T14:18:12;6.87;;;6.10;;
3767;SDS011;1899;49.966;7.106;2022-08-19T14:20:38;5.87;;;5.37;;
3767;SDS011;1899;49.966;7.106;2022-08-19T14:23:03;6.03;;;5.40;;
3767;SDS011;1899;49.966;7.106;2022-08-19T14:25:30;5.63;;;5.23;;
3767;SDS011;1899;49.966;7.106;2022-08-19T14:27:56;5.87;;;5.37;;
3767;SDS011;1899;49.966;7.106;2022-08-19T14:30:31;6.00;;;5.50;;
3767;SDS011;1899;49.966;7.106;2022-08-19T14:32:58;6.67;;;6.17;;
3767;SDS011;1899;49.966;7.106;2022-08-19T14:35:24;6.90;;;6.20;;
3767;SDS011;1899;49.966;7.106;2022-08-19T14:37:50;6.07;;;5.53;;
3767;SDS011;1899;49.966;7.106;2022-08-19T14:40:19;6.10;;;5.60;;
3767;SDS011;1899;49.966;7.106;2022-08-19T14:42:46;5.40;;;5.00;;
3767;SDS011;1899;49.966;7.106;2022-08-19T14:45:13;5.37;;;4.87;;
3767;SDS011;1899;49.966;7.106;2022-08-19T14:47:38;6.03;;;5.53;;
3767;SDS011;1899;49.966;7.106;2022-08-19T14:50:04;6.10;;;5.60;;
3767;SDS011;1899;49.966;7.106;2022-08-19T14:52:31;5.87;;;5.33;;
3767;SDS011;1899;49.966;7.106;2022-08-19T14:54:56;4.47;;;4.17;;
3767;SDS011;1899;49.966;7.106;2022-08-19T14:57:21;5.60;;;5.20;;
3767;SDS011;1899;49.966;7.106;2022-08-19T14:59:47;5.07;;;4.67;;
3767;SDS011;1899;49.966;7.106;2022-08-19T15:02:12;4.70;;;4.40;;
3767;SDS011;1899;49.966;7.106;2022-08-19T15:04:37;6.17;;;4.80;;
3767;SDS011;1899;49.966;7.106;2022-08-19T15:07:04;6.10;;;5.60;;
3767;SDS011;1899;49.966;7.106;2022-08-19T15:09:30;6.00;;;5.43;;
3767;SDS011;1899;49.966;7.106;2022-08-19T15:11:55;5.90;;;5.40;;
3767;SDS011;1899;49.966;7.106;2022-08-19T15:14:22;5.57;;;5.07;;
3767;SDS011;1899;49.966;7.106;2022-08-19T15:16:48;6.50;;;5.97;;
3767;SDS011;1899;49.966;7.106;2022-08-19T15:19:13;5.63;;;5.13;;
3767;SDS011;1899;49.966;7.106;2022-08-19T15:21:38;6.20;;;5.70;;
3767;SDS011;1899;49.966;7.106;2022-08-19T15:24:04;6.20;;;5.70;;
3767;SDS011;1899;49.966;7.106;2022-08-19T15:26:29;6.70;;;6.10;;
3767;SDS011;1899;49.966;7.106;2022-08-19T15:28:57;7.27;;;6.67;;
3767;SDS011;1899;49.966;7.106;2022-08-19T15:31:22;6.97;;;6.37;;
3767;SDS011;1899;49.966;7.106;2022-08-19T15:33:48;6.73;;;6.13;;
3767;SDS011;1899;49.966;7.106;2022-08-19T15:36:14;6.43;;;5.83;;
3767;SDS011;1899;49.966;7.106;2022-08-19T15:38:39;6.23;;;5.60;;
3767;SDS011;1899;49.966;7.106;2022-08-19T15:41:13;6.00;;;5.40;;
3767;SDS011;1899;49.966;7.106;2022-08-19T15:43:53;6.30;;;5.70;;
3767;SDS011;1899;49.966;7.106;2022-08-19T15:46:19;6.70;;;6.10;;
3767;SDS011;1899;49.966;7.106;2022-08-19T15:48:46;7.07;;;6.37;;
3767;SDS011;1899;49.966;7.106;2022-08-19T15:51:11;6.53;;;5.93;;
3767;SDS011;1899;49.966;7.106;2022-08-19T15:53:36;8.10;;;7.30;;
3767;SDS011;1899;49.966;7.106;2022-08-19T15:56:02;6.50;;;5.90;;
3767;SDS011;1899;49.966;7.106;2022-08-19T15:58:27;6.17;;;5.60;;
3767;SDS011;1899;49.966;7.106;2022-08-19T16:01:11;6.63;;;6.03;;
3767;SDS011;1899;49.966;7.106;2022-08-19T16:03:55;6.77;;;6.17;;
3767;SDS011;1899;49.966;7.106;2022-08-19T16:06:40;5.80;;;5.30;;
3767;SDS011;1899;49.966;7.106;2022-08-19T16:09:06;5.93;;;5.53;;
3767;SDS011;1899;49.966;7.106;2022-08-19T16:11:32;5.37;;;4.80;;
3767;SDS011;1899;49.966;7.106;2022-08-19T16:13:58;5.33;;;4.90;;
3767;SDS011;1899;49.966;7.106;2022-08-19T16:16:28;7.33;;;5.40;;
3767;SDS011;1899;49.966;7.106;2022-08-19T16:18:57;6.63;;;4.00;;
3767;SDS011;1899;49.966;7.106;2022-08-19T16:21:23;6.93;;;4.80;;
3767;SDS011;1899;49.966;7.106;2022-08-19T16:23:51;4.57;;;4.17;;
3767;SDS011;1899;49.966;7.106;2022-08-19T16:26:17;3.77;;;3.47;;
3767;SDS011;1899;49.966;7.106;2022-08-19T16:28:43;3.80;;;3.50;;
3767;SDS011;1899;49.966;7.106;2022-08-19T16:31:09;5.03;;;3.50;;
3767;SDS011;1899;49.966;7.106;2022-08-19T16:33:35;4.93;;;4.50;;
3767;SDS011;1899;49.966;7.106;2022-08-19T16:36:00;3.73;;;3.27;;
3767;SDS011;1899;49.966;7.106;2022-08-19T16:38:26;4.20;;;3.40;;
3767;SDS011;1899;49.966;7.106;2022-08-19T16:40:51;2.87;;;2.67;;
3767;SDS011;1899;49.966;7.106;2022-08-19T16:43:21;2.90;;;2.70;;
3767;SDS011;1899;49.966;7.106;2022-08-19T16:45:47;3.83;;;2.77;;
3767;SDS011;1899;49.966;7.106;2022-08-19T16:48:13;3.47;;;2.90;;
3767;SDS011;1899;49.966;7.106;2022-08-19T16:50:38;4.67;;;4.27;;
3767;SDS011;1899;49.966;7.106;2022-08-19T16:53:05;6.00;;;5.03;;
3767;SDS011;1899;49.966;7.106;2022-08-19T16:55:30;4.40;;;2.77;;
3767;SDS011;1899;49.966;7.106;2022-08-19T16:57:56;2.73;;;2.53;;
3767;SDS011;1899;49.966;7.106;2022-08-19T17:00:21;3.33;;;2.73;;
3767;SDS011;1899;49.966;7.106;2022-08-19T17:02:46;4.07;;;3.67;;
3767;SDS011;1899;49.966;7.106;2022-08-19T17:05:12;3.20;;;1.97;;
3767;SDS011;1899;49.966;7.106;2022-08-19T17:07:37;3.23;;;2.20;;
3767;SDS011;1899;49.966;7.106;2022-08-19T17:10:03;2.53;;;1.57;;
3767;SDS011;1899;49.966;7.106;2022-08-19T17:12:28;2.90;;;2.03;;
3767;SDS011;1899;49.966;7.106;2022-08-19T17:14:55;2.43;;;2.23;;
3767;SDS011;1899;49.966;7.106;2022-08-19T17:17:20;5.07;;;2.17;;
3767;SDS011;1899;49.966;7.106;2022-08-19T17:19:46;2.07;;;1.97;;
3767;SDS011;1899;49.966;7.106;2022-08-19T17:22:11;3.07;;;2.00;;
3767;SDS011;1899;49.966;7.106;2022-08-19T17:24:37;1.83;;;1.70;;
3767;SDS011;1899;49.966;7.106;2022-08-19T17:27:03;4.10;;;2.27;;
3767;SDS011;1899;49.966;7.106;2022-08-19T17:29:29;2.40;;;2.20;;
3767;SDS011;1899;49.966;7.106;2022-08-19T17:31:55;2.57;;;1.80;;
3767;SDS011;1899;49.966;7.106;2022-08-19T17:34:20;2.10;;;1.80;;
3767;SDS011;1899;49.966;7.106;2022-08-19T17:36:45;1.43;;;1.20;;
3767;SDS011;1899;49.966;7.106;2022-08-19T17:39:11;1.83;;;1.30;;
3767;SDS011;1899;49.966;7.106;2022-08-19T17:41:36;2.03;;;1.20;;
3767;SDS011;1899;49.966;7.106;2022-08-19T17:44:01;2.50;;;1.47;;
3767;SDS011;1899;49.966;7.106;2022-08-19T17:46:27;1.30;;;1.20;;
3767;SDS011;1899;49.966;7.106;2022-08-19T17:48:54;4.87;;;1.33;;
3767;SDS011;1899;49.966;7.106;2022-08-19T17:53:49;1.40;;;1.23;;
3767;SDS011;1899;49.966;7.106;2022-08-19T17:56:15;1.43;;;1.30;;
3767;SDS011;1899;49.966;7.106;2022-08-19T17:58:40;1.60;;;0.83;;
3767;SDS011;1899;49.966;7.106;2022-08-19T18:01:07;1.83;;;1.20;;
3767;SDS011;1899;49.966;7.106;2022-08-19T18:03:33;1.10;;;1.00;;
3767;SDS011;1899;49.966;7.106;2022-08-19T18:05:58;3.97;;;1.20;;
3767;SDS011;1899;49.966;7.106;2022-08-19T18:08:23;1.20;;;1.10;;
3767;SDS011;1899;49.966;7.106;2022-08-19T18:10:49;1.13;;;1.03;;
3767;SDS011;1899;49.966;7.106;2022-08-19T18:13:14;1.57;;;1.10;;
3767;SDS011;1899;49.966;7.106;2022-08-19T18:15:40;1.93;;;1.10;;
3767;SDS011;1899;49.966;7.106;2022-08-19T18:18:05;1.33;;;1.00;;
3767;SDS011;1899;49.966;7.106;2022-08-19T18:20:33;2.13;;;1.03;;
3767;SDS011;1899;49.966;7.106;2022-08-19T18:22:58;1.87;;;1.77;;
3767;SDS011;1899;49.966;7.106;2022-08-19T18:25:25;1.57;;;1.47;;
3767;SDS011;1899;49.966;7.106;2022-08-19T18:27:51;1.93;;;1.10;;
3767;SDS011;1899;49.966;7.106;2022-08-19T18:30:17;1.20;;;1.10;;
3767;SDS011;1899;49.966;7.106;2022-08-19T18:32:42;2.00;;;1.80;;
3767;SDS011;1899;49.966;7.106;2022-08-19T18:35:11;1.00;;;0.90;;
3767;SDS011;1899;49.966;7.106;2022-08-19T18:37:37;2.17;;;1.37;;
3767;SDS011;1899;49.966;7.106;2022-08-19T18:40:04;1.20;;;1.10;;
3767;SDS011;1899;49.966;7.106;2022-08-19T18:42:48;3.80;;;1.20;;
3767;SDS011;1899;49.966;7.106;2022-08-19T18:45:31;1.37;;;1.23;;
3767;SDS011;1899;49.966;7.106;2022-08-19T18:48:15;1.20;;;1.10;;
3767;SDS011;1899;49.966;7.106;2022-08-19T18:50:59;1.10;;;0.90;;
3767;SDS011;1899;49.966;7.106;2022-08-19T18:53:26;1.40;;;1.30;;
3767;SDS011;1899;49.966;7.106;2022-08-19T18:55:51;1.63;;;1.00;;
3767;SDS011;1899;49.966;7.106;2022-08-19T18:58:18;1.30;;;1.20;;
3767;SDS011;1899;49.966;7.106;2022-08-19T19:00:46;1.73;;;1.50;;
3767;SDS011;1899;49.966;7.106;2022-08-19T19:03:11;1.43;;;1.10;;
3767;SDS011;1899;49.966;7.106;2022-08-19T19:05:36;2.30;;;1.00;;
3767;SDS011;1899;49.966;7.106;2022-08-19T19:08:03;1.90;;;1.30;;
3767;SDS011;1899;49.966;7.106;2022-08-19T19:10:29;1.10;;;1.00;;
3767;SDS011;1899;49.966;7.106;2022-08-19T19:12:54;1.30;;;1.00;;
3767;SDS011;1899;49.966;7.106;2022-08-19T19:15:19;1.30;;;1.00;;
3767;SDS011;1899;49.966;7.106;2022-08-19T19:17:44;2.00;;;1.10;;